Time;durP1;ratioP1;P1;durP2;ratioP2;P2;SDS_P1;SDS_P2;PMS_P1;PMS_P2;Temp;Humidity;BMP_temperature;BMP_pressure;BME280_temperature;BME280_humidity;BME280_pressure;Samples;Min_cycle;Max_cycle;Signal;HPM_P1;HPM_P2
2021/05/26 00:00:23;;;;;;;3.57;3.27;;;7.80;99.90;;;;;;6249957;28;20991;-60
2021/05/26 00:03:26;;;;;;;5.50;3.87;;;7.70;99.90;;;;;;6246083;28;20494;-60
2021/05/26 00:06:29;;;;;;;3.57;3.27;;;7.70;99.90;;;;;;6243008;28;20482;-60
2021/05/26 00:09:32;;;;;;;4.00;3.60;;;7.70;99.90;;;;;;6234445;28;20472;-60
2021/05/26 00:12:35;;;;;;;3.37;3.13;;;7.70;99.90;;;;;;6234120;28;20468;-60
2021/05/26 00:15:39;;;;;;;3.33;3.13;;;7.70;99.90;;;;;;6235823;28;20474;-60
2021/05/26 00:18:42;;;;;;;3.43;3.10;;;7.70;99.90;;;;;;6237003;28;20921;-60
2021/05/26 00:21:45;;;;;;;3.53;3.23;;;7.70;99.90;;;;;;6237370;28;20936;-60
2021/05/26 00:24:48;;;;;;;4.10;3.80;;;7.70;99.90;;;;;;6236593;28;20459;-59
2021/05/26 00:27:57;;;;;;;3.33;3.13;;;7.70;99.90;;;;;;6230834;28;20459;-60
2021/05/26 00:31:06;;;;;;;5.10;3.70;;;7.70;99.90;;;;;;6244260;28;20489;-60
2021/05/26 00:34:09;;;;;;;4.80;3.80;;;7.70;99.90;;;;;;6249599;28;20482;-61
2021/05/26 00:37:11;;;;;;;4.17;3.70;;;7.60;99.90;;;;;;6249703;28;20474;-60
2021/05/26 00:40:15;;;;;;;3.20;3.00;;;7.60;99.90;;;;;;6249279;28;20998;-60
2021/05/26 00:43:18;;;;;;;3.47;3.27;;;7.60;99.90;;;;;;6249723;28;20474;-60
2021/05/26 00:46:21;;;;;;;3.13;2.90;;;7.70;99.90;;;;;;6249456;28;20475;-60
2021/05/26 00:49:24;;;;;;;3.50;3.20;;;7.60;99.90;;;;;;6249494;28;20995;-61
2021/05/26 00:52:27;;;;;;;6.00;3.50;;;7.50;99.90;;;;;;6249424;28;20481;-61
2021/05/26 00:55:30;;;;;;;4.30;4.00;;;7.50;99.90;;;;;;6249155;28;20968;-61
2021/05/26 00:58:33;;;;;;;3.93;2.97;;;7.60;99.90;;;;;;6249363;28;20478;-61
2021/05/26 01:01:36;;;;;;;5.53;3.07;;;7.60;99.90;;;;;;6249678;28;20478;-61
2021/05/26 01:04:39;;;;;;;3.70;3.40;;;7.50;99.90;;;;;;6249044;28;20503;-61
2021/05/26 01:07:42;;;;;;;4.77;3.40;;;7.50;99.90;;;;;;6248532;28;20475;-60
2021/05/26 01:10:45;;;;;;;3.50;3.20;;;7.50;99.90;;;;;;6249055;28;20959;-61
2021/05/26 01:13:48;;;;;;;3.40;3.10;;;7.50;99.90;;;;;;6249143;28;20854;-60
2021/05/26 01:16:52;;;;;;;3.60;3.07;;;7.40;99.90;;;;;;6239551;28;20491;-61
2021/05/26 01:19:54;;;;;;;4.63;3.47;;;7.40;99.90;;;;;;6248789;28;20482;-60
2021/05/26 01:23:00;;;;;;;4.33;4.00;;;7.40;99.90;;;;;;6248634;28;20832;-61
2021/05/26 01:26:05;;;;;;;4.20;3.80;;;7.30;99.90;;;;;;6248785;28;20479;-60
2021/05/26 01:29:08;;;;;;;4.80;4.40;;;7.30;99.90;;;;;;6249198;28;20991;-60
2021/05/26 01:32:11;;;;;;;5.70;4.87;;;7.20;99.90;;;;;;6249705;28;20490;-60
2021/05/26 01:35:16;;;;;;;5.67;5.17;;;7.00;99.90;;;;;;6249535;28;20470;-60
2021/05/26 01:38:23;;;;;;;3.70;3.40;;;7.00;99.90;;;;;;6249367;28;20471;-61
2021/05/26 01:41:26;;;;;;;3.07;2.87;;;7.00;99.90;;;;;;6249722;28;20486;-61
2021/05/26 01:44:33;;;;;;;3.13;2.93;;;7.10;99.90;;;;;;6249331;28;20467;-61
2021/05/26 01:47:36;;;;;;;2.87;2.67;;;7.00;99.90;;;;;;6249478;28;20474;-61
2021/05/26 01:50:39;;;;;;;3.60;2.70;;;7.00;99.90;;;;;;6249164;28;20482;-61
2021/05/26 01:53:43;;;;;;;2.60;2.40;;;7.00;99.90;;;;;;6248896;28;20481;-61
2021/05/26 01:56:46;;;;;;;3.20;2.90;;;7.00;99.90;;;;;;6249452;28;20525;-61
2021/05/26 01:59:49;;;;;;;4.00;2.90;;;7.00;99.90;;;;;;6249168;28;20474;-61
2021/05/26 02:02:54;;;;;;;2.87;2.67;;;7.00;99.90;;;;;;6249429;28;20471;-61
2021/05/26 02:05:57;;;;;;;3.10;2.47;;;7.00;99.90;;;;;;6249083;28;20470;-61
2021/05/26 02:09:01;;;;;;;2.30;2.20;;;7.00;99.90;;;;;;6248948;28;20467;-61
2021/05/26 02:12:21;;;;;;;4.60;2.80;;;7.00;99.90;;;;;;6249361;28;20475;-61
2021/05/26 02:15:24;;;;;;;2.73;2.53;;;7.00;99.90;;;;;;6249093;28;20483;-61
2021/05/26 02:18:27;;;;;;;2.40;2.27;;;7.00;99.90;;;;;;6251996;28;20482;-61
2021/05/26 02:21:30;;;;;;;3.57;2.47;;;6.90;99.90;;;;;;6248956;28;20825;-61
2021/05/26 02:24:33;;;;;;;2.87;2.67;;;6.90;99.90;;;;;;6253750;28;20478;-61
2021/05/26 02:27:36;;;;;;;2.40;2.30;;;6.90;99.90;;;;;;6253792;28;20476;-61
2021/05/26 02:30:39;;;;;;;3.30;2.80;;;6.80;99.90;;;;;;6253753;28;20469;-60
2021/05/26 02:33:42;;;;;;;2.70;2.50;;;6.80;99.90;;;;;;6254056;28;20466;-61
2021/05/26 02:36:45;;;;;;;2.60;2.40;;;6.80;99.90;;;;;;6253394;28;20474;-61
2021/05/26 02:39:48;;;;;;;2.60;2.40;;;6.70;99.90;;;;;;6253841;28;20457;-61
2021/05/26 02:42:51;;;;;;;3.17;2.87;;;6.70;99.90;;;;;;6253768;28;20447;-61
2021/05/26 02:45:54;;;;;;;3.53;3.33;;;6.60;99.90;;;;;;6253619;28;20466;-60
2021/05/26 02:48:56;;;;;;;5.53;3.90;;;6.50;99.90;;;;;;6253435;28;20585;-61
2021/05/26 02:51:59;;;;;;;4.37;4.07;;;6.40;99.90;;;;;;6253326;28;20474;-61
2021/05/26 02:55:04;;;;;;;4.37;3.97;;;6.30;99.90;;;;;;6252869;28;20780;-61
2021/05/26 02:58:06;;;;;;;4.40;4.00;;;6.20;99.90;;;;;;6253433;28;20481;-61
2021/05/26 03:01:13;;;;;;;4.37;4.07;;;6.10;99.90;;;;;;6253160;28;20467;-61
2021/05/26 03:04:17;;;;;;;4.47;4.07;;;5.90;99.90;;;;;;6253171;28;20475;-61
2021/05/26 03:07:19;;;;;;;5.17;4.77;;;5.80;99.90;;;;;;6253345;28;20485;-61
2021/05/26 03:10:23;;;;;;;6.47;4.60;;;5.80;99.90;;;;;;6253092;28;20814;-61
2021/05/26 03:13:26;;;;;;;8.40;4.10;;;5.70;99.90;;;;;;6253169;28;20470;-61
2021/05/26 03:16:29;;;;;;;6.93;4.20;;;5.50;99.90;;;;;;6252514;28;20478;-61
2021/05/26 03:19:32;;;;;;;7.00;4.20;;;5.50;99.90;;;;;;6252690;28;20964;-61
2021/05/26 03:22:35;;;;;;;6.77;4.43;;;5.50;99.90;;;;;;6248056;28;20470;-61
2021/05/26 03:25:40;;;;;;;10.10;4.90;;;5.40;99.90;;;;;;6252720;28;20485;-61
2021/05/26 03:28:45;;;;;;;4.80;4.30;;;5.40;99.90;;;;;;6251848;28;20486;-61
2021/05/26 03:31:48;;;;;;;9.00;5.20;;;5.40;99.90;;;;;;6252275;28;20976;-61
2021/05/26 03:34:50;;;;;;;11.87;4.90;;;5.50;99.90;;;;;;6252310;28;20506;-60
2021/05/26 03:37:53;;;;;;;7.07;5.33;;;5.50;99.90;;;;;;6252038;28;20780;-60
2021/05/26 03:40:57;;;;;;;6.00;5.50;;;5.60;99.90;;;;;;6252138;28;20482;-60
2021/05/26 03:44:02;;;;;;;7.73;5.20;;;5.70;99.90;;;;;;6252111;28;20541;-61
2021/05/26 03:47:05;;;;;;;14.70;5.50;;;5.70;99.90;;;;;;6252138;28;20475;-61
2021/05/26 03:50:12;;;;;;;7.20;4.80;;;5.80;99.90;;;;;;6251674;28;20467;-61
2021/05/26 03:53:20;;;;;;;8.70;4.67;;;5.80;99.90;;;;;;6252311;28;20471;-61
2021/05/26 03:56:23;;;;;;;7.00;4.60;;;5.90;99.90;;;;;;6251695;28;20467;-61
2021/05/26 03:59:26;;;;;;;10.83;4.83;;;5.80;99.90;;;;;;6252045;28;20475;-61
2021/05/26 04:02:29;;;;;;;18.47;4.90;;;5.90;99.90;;;;;;6252067;28;20475;-61
2021/05/26 04:05:31;;;;;;;21.97;6.73;;;6.00;99.90;;;;;;6251683;28;20925;-60
2021/05/26 04:08:34;;;;;;;5.37;4.87;;;6.00;99.90;;;;;;6251543;28;20597;-60
2021/05/26 04:11:38;;;;;;;22.00;6.47;;;6.00;99.90;;;;;;6251913;28;20471;-62
2021/05/26 04:14:40;;;;;;;9.23;5.43;;;6.00;99.90;;;;;;6251457;28;20988;-61
2021/05/26 04:17:43;;;;;;;11.00;5.47;;;6.10;99.90;;;;;;6251598;28;20470;-66
2021/05/26 04:20:46;;;;;;;12.87;5.33;;;6.10;99.90;;;;;;6251425;28;20470;-60
2021/05/26 04:23:49;;;;;;;6.30;4.43;;;6.10;99.90;;;;;;6251420;28;20478;-61
2021/05/26 04:26:52;;;;;;;8.57;5.40;;;6.20;99.90;;;;;;6251153;28;20470;-61
2021/05/26 04:29:59;;;;;;;8.60;5.13;;;6.20;99.90;;;;;;6246886;28;20490;-60
2021/05/26 04:33:02;;;;;;;9.63;5.30;;;6.20;99.90;;;;;;6251296;28;20999;-60
2021/05/26 04:36:05;;;;;;;37.97;8.20;;;6.40;99.90;;;;;;6250721;28;20474;-60
2021/05/26 04:39:09;;;;;;;8.00;4.87;;;6.50;99.90;;;;;;6251112;28;20489;-61
2021/05/26 04:42:12;;;;;;;6.23;5.63;;;6.60;99.90;;;;;;6250808;28;20474;-60
2021/05/26 04:45:16;;;;;;;40.07;8.17;;;6.60;99.90;;;;;;6251046;28;20820;-62
2021/05/26 04:48:19;;;;;;;50.87;9.20;;;6.80;99.90;;;;;;6250523;28;20474;-61
2021/05/26 04:51:21;;;;;;;37.33;8.83;;;6.70;99.90;;;;;;6250592;28;20497;-61
2021/05/26 04:54:24;;;;;;;73.33;10.70;;;6.70;99.90;;;;;;6250340;28;20493;-61
2021/05/26 04:57:28;;;;;;;19.87;6.93;;;6.80;99.90;;;;;;6250429;28;20819;-61
2021/05/26 05:00:31;;;;;;;20.10;6.73;;;6.80;99.90;;;;;;6250592;28;20478;-61
2021/05/26 05:03:34;;;;;;;8.27;5.70;;;6.90;99.90;;;;;;6248460;28;20479;-61
2021/05/26 05:06:37;;;;;;;7.10;5.83;;;7.10;99.90;;;;;;6247783;28;20475;-61
2021/05/26 05:09:39;;;;;;;8.80;5.70;;;7.40;99.90;;;;;;6247813;28;21171;-61
2021/05/26 05:12:43;;;;;;;5.43;4.93;;;7.60;99.90;;;;;;6248020;28;20493;-60
2021/05/26 05:15:46;;;;;;;7.70;5.77;;;7.80;99.90;;;;;;6247378;28;21086;-60
2021/05/26 05:18:48;;;;;;;6.07;5.30;;;7.80;99.90;;;;;;6249225;28;20447;-60
2021/05/26 05:21:51;;;;;;;6.03;5.23;;;8.00;99.90;;;;;;6249558;28;20523;-60
2021/05/26 05:24:55;;;;;;;6.37;5.80;;;8.20;99.90;;;;;;6249156;28;20459;-60
2021/05/26 05:27:59;;;;;;;7.17;6.23;;;8.30;99.90;;;;;;6249591;28;20439;-60
2021/05/26 05:31:01;;;;;;;9.30;6.73;;;8.40;99.90;;;;;;6245088;28;20829;-60
2021/05/26 05:34:04;;;;;;;9.00;5.83;;;8.60;99.90;;;;;;6247554;28;20875;-60
2021/05/26 05:37:07;;;;;;;8.40;6.10;;;8.80;99.90;;;;;;6247340;28;20478;-63
2021/05/26 05:40:11;;;;;;;6.77;6.13;;;9.20;99.90;;;;;;6247396;28;20477;-61
2021/05/26 05:43:15;;;;;;;7.07;6.10;;;9.60;99.90;;;;;;6247313;28;20474;-61
2021/05/26 05:46:18;;;;;;;6.37;5.73;;;10.00;99.90;;;;;;6247469;28;20467;-61
2021/05/26 05:49:23;;;;;;;5.43;5.03;;;10.40;99.90;;;;;;6248589;28;20816;-58
2021/05/26 05:52:26;;;;;;;6.23;5.63;;;10.60;99.90;;;;;;6249169;28;20806;-57
2021/05/26 05:55:29;;;;;;;8.10;6.20;;;10.60;99.90;;;;;;6248568;28;20494;-57
2021/05/26 05:58:33;;;;;;;9.37;6.10;;;10.60;99.90;;;;;;6248920;28;20922;-58
2021/05/26 06:01:36;;;;;;;7.43;5.60;;;10.70;99.90;;;;;;6249061;28;20471;-61
2021/05/26 06:04:40;;;;;;;5.87;5.30;;;11.00;99.90;;;;;;6249102;28;20478;-62
2021/05/26 06:07:42;;;;;;;9.70;5.97;;;11.70;99.90;;;;;;6248876;28;20502;-60
2021/05/26 06:10:45;;;;;;;6.33;5.53;;;12.20;99.90;;;;;;6249154;28;20574;-62
2021/05/26 06:13:49;;;;;;;8.97;5.20;;;12.70;99.40;;;;;;6249162;28;20470;-62
2021/05/26 06:16:52;;;;;;;5.33;4.83;;;13.30;98.60;;;;;;6249826;28;20482;-68
2021/05/26 06:19:55;;;;;;;5.97;5.37;;;14.00;97.70;;;;;;6249692;28;20988;-58
2021/05/26 06:22:58;;;;;;;5.63;5.13;;;14.60;96.30;;;;;;6248766;28;20470;-66
2021/05/26 06:26:01;;;;;;;5.20;4.70;;;15.20;94.70;;;;;;6249218;28;20486;-68
2021/05/26 06:29:06;;;;;;;5.50;5.00;;;15.80;93.50;;;;;;6248290;28;20467;-61
2021/05/26 06:32:08;;;;;;;5.10;4.50;;;16.60;91.70;;;;;;6248094;28;20808;-61
2021/05/26 06:35:12;;;;;;;6.40;4.60;;;17.10;90.50;;;;;;6243223;28;20505;-61
2021/05/26 06:38:15;;;;;;;7.87;4.87;;;17.50;87.10;;;;;;6247309;28;20952;-61
2021/05/26 06:41:18;;;;;;;5.57;5.07;;;17.90;85.10;;;;;;6247143;28;20479;-61
2021/05/26 06:44:22;;;;;;;5.73;5.13;;;18.50;83.00;;;;;;6245068;28;20613;-60
2021/05/26 06:47:25;;;;;;;6.83;6.23;;;18.90;82.20;;;;;;6247030;28;20477;-62
2021/05/26 06:50:28;;;;;;;7.03;6.33;;;19.30;79.10;;;;;;6247301;28;20471;-61
2021/05/26 06:53:30;;;;;;;7.80;6.20;;;19.30;77.20;;;;;;6243274;28;20809;-61
2021/05/26 06:56:34;;;;;;;8.70;6.93;;;19.80;75.30;;;;;;6235001;28;20475;-61
2021/05/26 06:59:38;;;;;;;7.70;5.83;;;20.00;73.70;;;;;;6233622;28;20475;-62
2021/05/26 07:02:40;;;;;;;11.07;7.30;;;20.80;71.90;;;;;;6239279;28;20471;-62
2021/05/26 07:05:44;;;;;;;7.03;6.33;;;21.70;68.30;;;;;;6240571;28;20225;-61
2021/05/26 07:08:47;;;;;;;7.93;7.13;;;22.50;64.00;;;;;;6241181;28;20232;-61
2021/05/26 07:11:50;;;;;;;9.03;6.90;;;22.40;62.00;;;;;;6239803;28;20224;-61
2021/05/26 07:14:54;;;;;;;8.17;6.50;;;23.20;60.10;;;;;;6235956;28;20457;-61
2021/05/26 07:18:02;;;;;;;8.83;6.70;;;23.70;57.70;;;;;;6251643;28;20228;-61
2021/05/26 07:21:05;;;;;;;7.00;6.30;;;24.30;56.40;;;;;;6252089;28;20231;-62
2021/05/26 07:24:09;;;;;;;6.67;6.03;;;25.20;54.80;;;;;;6249783;28;20228;-62
2021/05/26 07:27:12;;;;;;;7.50;5.80;;;26.10;51.70;;;;;;6238582;28;20725;-62
2021/05/26 07:30:17;;;;;;;7.60;7.00;;;26.70;49.70;;;;;;6241591;28;20235;-62
2021/05/26 07:33:20;;;;;;;7.90;7.17;;;27.80;48.10;;;;;;6237713;28;20224;-62
2021/05/26 07:36:23;;;;;;;6.70;6.00;;;27.90;46.20;;;;;;6236563;28;20559;-62
2021/05/26 07:39:28;;;;;;;9.63;6.30;;;27.90;45.50;;;;;;6237963;28;20231;-62
2021/05/26 07:42:30;;;;;;;18.30;16.70;;;28.80;44.50;;;;;;6234878;28;20231;-61
2021/05/26 07:45:34;;;;;;;6.43;5.80;;;29.70;42.10;;;;;;6239258;28;20239;-62
2021/05/26 07:48:37;;;;;;;10.37;6.50;;;30.20;40.90;;;;;;6237536;28;20584;-61
2021/05/26 07:51:45;;;;;;;7.20;5.73;;;30.00;40.20;;;;;;6238500;28;20229;-62
2021/05/26 07:54:49;;;;;;;5.90;4.60;;;30.00;39.50;;;;;;6245873;28;20235;-62
2021/05/26 07:57:51;;;;;;;4.80;4.30;;;29.80;39.20;;;;;;6244882;28;20223;-70
2021/05/26 08:00:55;;;;;;;5.67;5.17;;;29.30;39.40;;;;;;6232418;28;20301;-69
2021/05/26 08:03:58;;;;;;;5.40;4.97;;;28.80;40.00;;;;;;6229730;28;20224;-70
2021/05/26 08:07:01;;;;;;;5.77;3.30;;;27.90;40.70;;;;;;6226335;28;21643;-69
2021/05/26 08:10:05;;;;;;;4.30;3.90;;;27.10;39.70;;;;;;6226864;28;20532;-70
2021/05/26 08:13:09;;;;;;;3.00;2.53;;;26.40;40.20;;;;;;6248460;28;20223;-69
2021/05/26 08:16:15;;;;;;;3.40;3.10;;;25.80;40.80;;;;;;6251804;28;20231;-69
2021/05/26 08:19:18;;;;;;;4.00;3.20;;;25.20;42.30;;;;;;6254253;28;20232;-69
2021/05/26 08:22:21;;;;;;;3.73;3.20;;;24.30;42.50;;;;;;6250384;28;20224;-69
2021/05/26 08:25:23;;;;;;;2.40;2.20;;;23.60;44.80;;;;;;6257204;28;20231;-69
2021/05/26 08:28:26;;;;;;;2.80;2.50;;;23.20;45.00;;;;;;6275688;28;20564;-69
2021/05/26 08:31:31;;;;;;;2.23;2.03;;;22.70;45.10;;;;;;6276140;28;20230;-69
2021/05/26 08:34:34;;;;;;;3.00;2.50;;;22.20;45.70;;;;;;6275274;28;20236;-69
2021/05/26 08:37:36;;;;;;;4.80;2.67;;;21.70;46.20;;;;;;6275432;28;20302;-69
2021/05/26 08:40:40;;;;;;;2.43;2.03;;;21.30;47.00;;;;;;6275934;28;20685;-57
2021/05/26 08:43:43;;;;;;;1.50;1.40;;;20.80;47.60;;;;;;6271028;28;20219;-57
2021/05/26 08:46:52;;;;;;;2.53;1.80;;;20.70;49.10;;;;;;6275352;28;20224;-62
2021/05/26 08:49:55;;;;;;;2.10;1.73;;;20.30;48.20;;;;;;6267668;28;20232;-61
2021/05/26 08:52:58;;;;;;;2.20;1.50;;;20.20;48.90;;;;;;6250574;28;20227;-58
2021/05/26 08:56:01;;;;;;;3.13;1.50;;;20.20;50.20;;;;;;6249932;28;20374;-59
2021/05/26 08:59:04;;;;;;;2.10;1.80;;;20.00;49.70;;;;;;6250628;28;20239;-66
2021/05/26 09:02:11;;;;;;;5.23;2.83;;;20.00;50.00;;;;;;6249791;28;20227;-65
2021/05/26 09:05:22;;;;;;;5.30;2.57;;;19.90;50.90;;;;;;6250198;28;20573;-66
2021/05/26 09:08:26;;;;;;;2.50;2.00;;;20.00;51.50;;;;;;6249973;28;20323;-57
2021/05/26 09:11:30;;;;;;;1.90;1.80;;;19.90;51.70;;;;;;6250080;28;20236;-59
2021/05/26 09:14:38;;;;;;;5.13;2.50;;;19.90;51.60;;;;;;6249633;28;20232;-60
2021/05/26 09:17:42;;;;;;;2.60;2.10;;;19.40;52.40;;;;;;6248337;28;20307;-60
2021/05/26 09:20:46;;;;;;;1.80;1.70;;;19.40;54.60;;;;;;6249226;28;20240;-58
2021/05/26 09:23:49;;;;;;;2.53;1.83;;;19.70;54.50;;;;;;6250020;28;20267;-62
2021/05/26 09:26:54;;;;;;;4.23;2.10;;;19.80;53.20;;;;;;6266653;28;20459;-61
2021/05/26 09:29:57;;;;;;;1.87;1.77;;;19.60;53.10;;;;;;6274563;28;20268;-62
2021/05/26 09:33:04;;;;;;;3.40;2.17;;;19.60;53.80;;;;;;6273909;28;20702;-64
2021/05/26 09:36:19;;;;;;;4.53;1.93;;;19.50;53.50;;;;;;6274006;28;20238;-65
2021/05/26 09:39:22;;;;;;;2.90;2.20;;;19.80;53.00;;;;;;6273855;28;20798;-65
2021/05/26 09:42:33;;;;;;;5.10;2.50;;;19.80;52.40;;;;;;6274276;28;20243;-65
2021/05/26 09:45:36;;;;;;;3.30;1.70;;;19.90;53.30;;;;;;6273639;28;20235;-69
2021/05/26 09:49:11;;;;;;;1.40;1.30;;;19.80;52.10;;;;;;6251599;28;20224;-64
2021/05/26 09:52:16;;;;;;;2.00;1.40;;;19.90;51.20;;;;;;6274164;28;20234;-69
2021/05/26 09:55:21;;;;;;;3.27;1.70;;;19.80;51.60;;;;;;6273936;28;20688;-65
2021/05/26 09:58:27;;;;;;;2.00;1.10;;;19.70;50.80;;;;;;6273458;28;20688;-67
2021/05/26 10:01:31;;;;;;;1.60;1.50;;;19.80;52.30;;;;;;6274011;28;20227;-62
2021/05/26 10:04:41;;;;;;;0.97;0.83;;;19.70;51.50;;;;;;6273528;28;20254;-60
2021/05/26 10:07:44;;;;;;;1.70;0.90;;;19.50;50.90;;;;;;6273932;28;20703;-61
2021/05/26 10:10:48;;;;;;;1.10;1.00;;;19.50;49.10;;;;;;6273546;28;20585;-58
2021/05/26 10:13:52;;;;;;;1.33;0.90;;;19.60;49.60;;;;;;6273713;28;20230;-62
2021/05/26 10:16:56;;;;;;;1.30;1.13;;;19.70;50.10;;;;;;6268364;28;20281;-63
2021/05/26 10:20:00;;;;;;;4.73;0.90;;;19.70;51.50;;;;;;6254787;28;20224;-59
2021/05/26 10:23:04;;;;;;;1.10;1.00;;;19.80;50.80;;;;;;6241858;28;20244;-59
2021/05/26 10:26:06;;;;;;;1.73;1.03;;;19.90;50.00;;;;;;6233139;28;20570;-61
2021/05/26 10:29:37;;;;;;;2.43;1.20;;;19.70;49.50;;;;;;6230620;28;20232;-59
2021/05/26 10:32:52;;;;;;;1.37;0.90;;;19.60;49.90;;;;;;6234069;28;20242;-61
2021/05/26 10:35:57;;;;;;;1.13;1.00;;;19.60;49.90;;;;;;6234293;28;20244;-59
2021/05/26 10:39:01;;;;;;;1.87;0.90;;;19.60;51.20;;;;;;6235460;28;20236;-62
2021/05/26 10:42:05;;;;;;;0.80;0.80;;;19.60;49.30;;;;;;6238647;28;20248;-59
2021/05/26 10:45:09;;;;;;;1.10;0.90;;;19.30;51.10;;;;;;6238847;28;20315;-63
2021/05/26 10:48:13;;;;;;;2.90;0.90;;;19.40;50.50;;;;;;6238335;28;20221;-59
2021/05/26 10:51:16;;;;;;;1.30;0.70;;;19.50;51.30;;;;;;6229590;28;20236;-59
2021/05/26 10:54:58;;;;;;;1.53;1.13;;;19.60;51.00;;;;;;6252935;28;20678;-61
2021/05/26 10:58:15;;;;;;;0.90;0.80;;;19.70;49.30;;;;;;6253017;28;20554;-60
2021/05/26 11:01:18;;;;;;;2.03;1.20;;;19.60;48.10;;;;;;6248739;28;20224;-60
2021/05/26 11:04:21;;;;;;;0.70;0.63;;;19.60;49.50;;;;;;6243898;28;20228;-61
2021/05/26 11:07:29;;;;;;;1.00;0.70;;;19.50;50.20;;;;;;6242055;28;20666;-61
2021/05/26 11:10:32;;;;;;;1.67;0.90;;;19.70;50.70;;;;;;6226813;28;20545;-61
2021/05/26 11:14:01;;;;;;;0.90;0.77;;;19.90;50.50;;;;;;6232898;28;20692;-61
2021/05/26 11:17:39;;;;;;;2.40;0.80;;;20.00;50.00;;;;;;6238198;28;20233;-62
2021/05/26 11:20:42;;;;;;;1.83;0.77;;;19.80;50.40;;;;;;6236080;28;20675;-61
2021/05/26 11:23:53;;;;;;;2.00;1.00;;;19.70;51.20;;;;;;6250217;28;20697;-62
2021/05/26 11:26:56;;;;;;;1.63;1.10;;;19.60;51.40;;;;;;6251739;28;20224;-61
2021/05/26 11:30:03;;;;;;;3.00;1.57;;;19.70;51.90;;;;;;6252376;28;20224;-61
2021/05/26 11:33:10;;;;;;;1.17;0.93;;;19.60;50.70;;;;;;6251764;28;20220;-59
2021/05/26 11:36:14;;;;;;;1.40;0.80;;;19.70;51.80;;;;;;6252227;28;20701;-59
2021/05/26 11:39:18;;;;;;;1.23;1.13;;;19.80;51.80;;;;;;6251557;28;20243;-59
2021/05/26 11:42:23;;;;;;;2.30;1.30;;;19.90;53.40;;;;;;6251964;28;20228;-59
2021/05/26 11:45:26;;;;;;;1.17;1.07;;;19.90;54.40;;;;;;6246689;28;20228;-60
2021/05/26 11:48:29;;;;;;;2.63;1.20;;;19.90;54.70;;;;;;6241913;28;20229;-60
2021/05/26 11:51:36;;;;;;;1.13;1.03;;;19.80;54.00;;;;;;6242278;28;20314;-61
2021/05/26 11:54:53;;;;;;;2.10;1.07;;;19.80;55.70;;;;;;6237513;28;20232;-61
2021/05/26 11:57:56;;;;;;;2.70;1.03;;;20.20;55.20;;;;;;6234419;28;20232;-62
2021/05/26 12:01:04;;;;;;;1.87;1.00;;;20.30;54.20;;;;;;6244066;28;20650;-61
2021/05/26 12:04:15;;;;;;;1.50;1.37;;;19.90;56.80;;;;;;6234752;28;20246;-61
2021/05/26 12:07:23;;;;;;;3.83;1.20;;;19.90;56.90;;;;;;6243323;28;20247;-60
2021/05/26 12:10:29;;;;;;;1.30;1.00;;;20.10;56.40;;;;;;6226539;28;20225;-60
2021/05/26 12:13:33;;;;;;;1.10;1.00;;;20.10;56.00;;;;;;6226383;28;20723;-60
2021/05/26 12:16:36;;;;;;;3.83;1.60;;;19.70;57.00;;;;;;6238444;28;20385;-60
2021/05/26 12:19:39;;;;;;;3.70;1.20;;;20.00;57.30;;;;;;6234413;28;20225;-60
2021/05/26 12:22:46;;;;;;;2.30;1.37;;;20.30;56.50;;;;;;6251115;28;20540;-59
2021/05/26 12:25:52;;;;;;;2.20;1.33;;;20.40;56.10;;;;;;6246826;28;20252;-60
2021/05/26 12:28:56;;;;;;;1.53;1.43;;;20.60;55.70;;;;;;6238861;28;20231;-59
2021/05/26 12:32:02;;;;;;;2.30;1.20;;;20.40;55.40;;;;;;6233724;28;20688;-59
2021/05/26 12:35:12;;;;;;;2.60;1.47;;;20.50;55.30;;;;;;6250212;28;20701;-60
2021/05/26 12:38:17;;;;;;;1.77;1.40;;;20.80;55.20;;;;;;6234236;28;20243;-59
2021/05/26 12:44:44;;;;;;;3.90;1.33;;;21.30;54.60;;;;;;6232942;28;20549;-62
2021/05/26 12:47:48;;;;;;;2.13;1.33;;;21.60;53.50;;;;;;6239583;28;20225;-61
2021/05/26 12:50:51;;;;;;;1.40;1.30;;;21.60;53.10;;;;;;6238366;28;20225;-64
2021/05/26 12:53:56;;;;;;;2.37;1.60;;;21.70;53.10;;;;;;6241551;28;20229;-64
2021/05/26 12:57:08;;;;;;;2.07;1.33;;;21.70;53.50;;;;;;6238053;28;20673;-63
2021/05/26 13:00:12;;;;;;;2.30;1.50;;;21.00;53.50;;;;;;6233008;28;20255;-64
2021/05/26 13:03:20;;;;;;;1.83;1.30;;;21.00;53.60;;;;;;6248831;28;20571;-65
2021/05/26 13:06:22;;;;;;;2.67;1.20;;;21.00;53.80;;;;;;6233079;28;20239;-66
2021/05/26 13:09:30;;;;;;;2.30;1.07;;;21.00;53.00;;;;;;6233785;28;20311;-65
2021/05/26 13:12:34;;;;;;;2.00;1.50;;;21.10;53.70;;;;;;6233939;28;20223;-66
2021/05/26 13:15:43;;;;;;;1.90;1.17;;;21.00;53.80;;;;;;6236200;28;20232;-63
2021/05/26 13:18:46;;;;;;;1.53;1.20;;;21.00;53.50;;;;;;6238878;28;20225;-63
2021/05/26 13:21:51;;;;;;;1.60;0.97;;;20.90;53.10;;;;;;6238840;28;20658;-62
2021/05/26 13:24:54;;;;;;;1.47;0.80;;;20.90;53.10;;;;;;6238395;28;20235;-63
2021/05/26 13:27:58;;;;;;;1.90;1.03;;;21.10;53.40;;;;;;6230622;28;20369;-63
2021/05/26 13:31:00;;;;;;;1.20;1.10;;;21.00;53.10;;;;;;6246602;28;20634;-63
2021/05/26 13:34:03;;;;;;;3.97;1.13;;;20.90;53.60;;;;;;6245588;28;20714;-62
2021/05/26 13:37:06;;;;;;;6.50;1.33;;;21.00;52.70;;;;;;6246624;28;20362;-63
2021/05/26 13:40:11;;;;;;;1.10;1.00;;;21.10;52.80;;;;;;6246374;28;20232;-63
2021/05/26 13:43:16;;;;;;;3.43;1.17;;;21.10;52.30;;;;;;6227134;28;20229;-63
2021/05/26 13:46:20;;;;;;;2.33;0.93;;;20.80;53.00;;;;;;6244215;28;20587;-63
2021/05/26 13:49:23;;;;;;;3.43;1.00;;;20.80;53.20;;;;;;6246593;28;20543;-66
2021/05/26 13:52:27;;;;;;;1.27;0.90;;;20.70;53.70;;;;;;6242386;28;20361;-64
2021/05/26 13:55:32;;;;;;;1.70;0.90;;;20.50;53.30;;;;;;6246139;28;20232;-63
2021/05/26 13:58:35;;;;;;;2.83;1.23;;;20.50;53.80;;;;;;6231763;28;20225;-64
2021/05/26 14:01:38;;;;;;;2.60;1.00;;;20.40;54.20;;;;;;6243130;28;20243;-63
2021/05/26 14:04:41;;;;;;;1.07;0.87;;;20.50;53.90;;;;;;6232777;28;20247;-63
2021/05/26 14:07:44;;;;;;;1.20;1.10;;;20.70;53.80;;;;;;6233448;28;20219;-63
2021/05/26 14:10:46;;;;;;;1.23;1.00;;;20.90;53.10;;;;;;6232416;28;20231;-64
2021/05/26 14:13:52;;;;;;;1.80;1.00;;;21.10;53.00;;;;;;6241668;28;20233;-63
2021/05/26 14:16:55;;;;;;;2.43;1.00;;;21.00;52.50;;;;;;6246938;28;20589;-63
2021/05/26 14:19:57;;;;;;;2.20;1.20;;;20.90;52.70;;;;;;6243407;28;20228;-64
2021/05/26 14:23:01;;;;;;;1.87;1.00;;;20.80;52.90;;;;;;6245334;28;20289;-62
2021/05/26 14:26:05;;;;;;;1.80;1.13;;;20.50;53.10;;;;;;6242793;28;20228;-64
2021/05/26 14:29:08;;;;;;;2.20;1.37;;;20.50;53.00;;;;;;6231878;28;20573;-63
2021/05/26 14:32:11;;;;;;;1.80;1.10;;;20.40;53.60;;;;;;6242896;28;20227;-63
2021/05/26 14:35:16;;;;;;;2.40;1.10;;;20.50;53.60;;;;;;6246088;28;20235;-63
2021/05/26 14:38:30;;;;;;;2.17;1.40;;;20.70;53.80;;;;;;6244793;28;20216;-64
2021/05/26 14:41:33;;;;;;;1.90;1.40;;;20.70;53.70;;;;;;6247208;28;20530;-64
2021/05/26 14:44:37;;;;;;;1.30;1.17;;;20.70;53.40;;;;;;6243051;28;20324;-64
2021/05/26 14:47:40;;;;;;;3.20;1.10;;;20.70;53.60;;;;;;6229354;28;20235;-63
2021/05/26 14:50:43;;;;;;;1.53;0.77;;;20.70;53.90;;;;;;6230491;28;20237;-63
2021/05/26 14:53:46;;;;;;;1.70;0.90;;;20.70;53.00;;;;;;6252908;28;20228;-63
2021/05/26 14:56:49;;;;;;;1.57;0.90;;;20.60;52.90;;;;;;6252911;28;20282;-63
2021/05/26 14:59:52;;;;;;;1.33;0.90;;;20.70;53.30;;;;;;6252847;28;20569;-63
2021/05/26 15:02:55;;;;;;;1.90;0.67;;;21.00;53.10;;;;;;6252499;28;20228;-64
2021/05/26 15:05:58;;;;;;;1.50;1.20;;;21.00;52.70;;;;;;6247207;28;20236;-63
2021/05/26 15:09:01;;;;;;;2.37;1.27;;;21.10;52.60;;;;;;6252816;28;20646;-63
2021/05/26 15:12:05;;;;;;;1.90;0.90;;;21.20;53.00;;;;;;6250827;28;20610;-60
2021/05/26 15:15:10;;;;;;;2.10;1.30;;;21.20;52.20;;;;;;6250012;28;20236;-60
2021/05/26 15:18:13;;;;;;;3.80;0.97;;;21.10;52.10;;;;;;6250457;28;20232;-62
2021/05/26 15:21:16;;;;;;;1.20;1.10;;;21.20;52.20;;;;;;6249865;28;20804;-66
2021/05/26 15:24:19;;;;;;;1.20;1.00;;;21.20;52.30;;;;;;6249334;28;20274;-67
2021/05/26 15:27:21;;;;;;;2.50;0.83;;;21.00;52.80;;;;;;6250731;28;20566;-63
2021/05/26 15:30:25;;;;;;;1.20;1.10;;;21.00;52.80;;;;;;6252241;28;20228;-64
2021/05/26 15:33:28;;;;;;;1.23;1.00;;;21.00;51.80;;;;;;6252201;28;20315;-63
2021/05/26 15:36:32;;;;;;;1.67;0.97;;;21.00;52.50;;;;;;6251682;28;20232;-64
2021/05/26 15:39:35;;;;;;;2.57;1.27;;;21.10;52.80;;;;;;6252165;28;20242;-63
2021/05/26 15:42:38;;;;;;;2.40;1.00;;;21.20;52.40;;;;;;6251988;28;20246;-64
2021/05/26 15:45:42;;;;;;;1.13;0.90;;;20.80;53.20;;;;;;6251758;28;20227;-59
2021/05/26 15:48:47;;;;;;;2.30;1.57;;;20.80;54.10;;;;;;6250481;28;20286;-60
2021/05/26 15:51:49;;;;;;;3.40;1.10;;;20.90;54.40;;;;;;6229177;28;20209;-61
2021/05/26 15:54:53;;;;;;;2.30;1.23;;;21.10;54.10;;;;;;6273809;28;20239;-61
2021/05/26 15:57:56;;;;;;;3.40;1.00;;;21.20;52.60;;;;;;6252154;28;20204;-62
2021/05/26 16:00:59;;;;;;;1.17;1.07;;;21.30;52.60;;;;;;6251812;28;20208;-61
2021/05/26 16:04:02;;;;;;;1.20;1.00;;;21.30;52.30;;;;;;6251893;28;20243;-61
2021/05/26 16:07:06;;;;;;;3.70;1.30;;;21.20;52.90;;;;;;6251941;28;20239;-64